PIM weather

Harris County Airport
Pine Mountain, Georgia, United States

Public forecast

Using degrees Fahrenheit for public forecast. Weather courtesy of forecast.io.

METAR (pilot weather report)

Retrieved 2019/09/22 21:35 UTC (0 seconds ago):

KPIM 222135Z AUTO 09006KT 10SM CLR 31/09 A3012 RMK AO2 T03100093

TAF (pilot weather forecast)

Closest forecast is Columbus Metropolitan Airport, 19.7 nm (36.5 km) S. Retrieved 2019/09/22 18:45 UTC (3 hours ago):

TAF KCSG 221741Z 2218/2318 13004KT P6SM FEW060 FM230300 00000KT P6SM SKC FM231600 31006KT P6SM FEW050